Time;durP1;ratioP1;P1;durP2;ratioP2;P2;SDS_P1;SDS_P2;PMS_P1;PMS_P2;Temp;Humidity;BMP_temperature;BMP_pressure;BME280_temperature;BME280_humidity;BME280_pressure;Samples;Min_cycle;Max_cycle;Signal;HPM_P1;HPM_P2
2021/12/28 00:00:08;;;;;;;63.65;46.00;;;;;;;-144.47;100.00;61586.06;5038056;28;20064;-87
2021/12/28 00:02:38;;;;;;;64.22;46.08;;;;;;;-144.47;100.00;61586.06;5066733;28;20025;-87
2021/12/28 00:05:04;;;;;;;71.30;49.15;;;;;;;-144.47;100.00;61586.06;5041142;28;20041;-86
2021/12/28 00:07:29;;;;;;;65.40;46.92;;;;;;;-144.47;100.00;61586.06;5054688;28;20128;-86
2021/12/28 00:09:55;;;;;;;61.17;45.20;;;;;;;-144.47;100.00;61586.06;5030761;28;20090;-87
2021/12/28 00:12:21;;;;;;;66.00;46.88;;;;;;;-144.47;100.00;61586.06;5030474;28;20048;-87
2021/12/28 00:15:05;;;;;;;66.68;46.15;;;;;;;-144.47;100.00;61586.06;5054333;28;20044;-87
2021/12/28 00:20:37;;;;;;;64.25;46.58;;;;;;;-144.47;100.00;61586.06;4998831;28;20060;-87
2021/12/28 00:23:07;;;;;;;65.20;45.00;;;;;;;-144.47;100.00;61586.06;5057036;28;20067;-87
2021/12/28 00:25:33;;;;;;;66.30;47.53;;;;;;;-144.47;100.00;61586.06;5057683;28;20029;-88
2021/12/28 00:27:58;;;;;;;64.50;45.30;;;;;;;-144.47;100.00;61586.06;5034827;28;20029;-88
2021/12/28 00:30:24;;;;;;;67.15;46.85;;;;;;;-144.47;100.00;61586.06;5035405;28;20031;-87
2021/12/28 00:32:56;;;;;;;65.45;47.53;;;;;;;-144.47;100.00;61586.06;5052309;28;20033;-88
2021/12/28 00:35:28;;;;;;;65.75;46.42;;;;;;;-144.47;100.00;61586.06;5033922;28;20118;-87
2021/12/28 00:37:55;;;;;;;68.90;47.30;;;;;;;-144.47;100.00;61586.06;5033977;28;20112;-88
2021/12/28 00:40:20;;;;;;;64.22;46.30;;;;;;;-144.47;100.00;61586.06;5053045;28;20025;-86
2021/12/28 00:42:46;;;;;;;67.70;47.58;;;;;;;-144.47;100.00;61586.06;5034617;28;20085;-88
2021/12/28 00:45:13;;;;;;;65.70;47.38;;;;;;;-144.47;100.00;61586.06;5034252;28;20060;-88
2021/12/28 00:47:39;;;;;;;67.00;45.78;;;;;;;-144.47;100.00;61586.06;5033869;28;20041;-88
2021/12/28 00:50:06;;;;;;;65.45;46.97;;;;;;;-144.47;100.00;61586.06;5052462;28;20040;-88
2021/12/28 00:52:32;;;;;;;64.65;44.42;;;;;;;-144.47;100.00;61586.06;5034436;28;20076;-88
2021/12/28 00:54:57;;;;;;;62.20;45.40;;;;;;;-144.47;100.00;61586.06;5034722;28;20481;-88
2021/12/28 00:57:23;;;;;;;63.95;44.50;;;;;;;-144.47;100.00;61586.06;5028404;28;20132;-87
2021/12/28 00:59:50;;;;;;;63.03;44.88;;;;;;;-144.47;100.00;61586.06;5072397;28;20040;-87
2021/12/28 01:02:17;;;;;;;65.00;45.00;;;;;;;-144.47;100.00;61586.06;5049475;28;20065;-88
2021/12/28 01:04:42;;;;;;;65.70;45.72;;;;;;;-144.47;100.00;61586.06;5035167;28;20036;-87
2021/12/28 01:07:08;;;;;;;63.67;45.75;;;;;;;-144.47;100.00;61586.06;5038154;28;20040;-88
2021/12/28 01:09:34;;;;;;;66.63;46.08;;;;;;;-144.47;100.00;61586.06;5033915;28;20390;-88
2021/12/28 01:12:03;;;;;;;62.72;45.50;;;;;;;-144.47;100.00;61586.06;5052159;28;20060;-88
2021/12/28 01:14:29;;;;;;;68.70;44.85;;;;;;;-144.47;100.00;61586.06;5017769;28;20075;-88
2021/12/28 01:16:55;;;;;;;67.85;47.67;;;;;;;-144.47;100.00;61586.06;5051642;28;20033;-88
2021/12/28 01:19:21;;;;;;;62.53;45.08;;;;;;;-144.47;100.00;61586.06;5018793;28;20119;-86
2021/12/28 01:21:46;;;;;;;65.97;46.13;;;;;;;-144.47;100.00;61586.06;5051870;28;20025;-88
2021/12/28 01:24:12;;;;;;;62.80;44.78;;;;;;;-144.47;100.00;61586.06;5033654;28;20048;-88
2021/12/28 01:26:38;;;;;;;59.85;43.85;;;;;;;-144.47;100.00;61586.06;5019174;28;20464;-88
2021/12/28 01:29:04;;;;;;;63.17;44.50;;;;;;;-144.47;100.00;61586.06;5057315;28;20029;-86
2021/12/28 01:31:30;;;;;;;64.43;45.75;;;;;;;-144.47;100.00;61586.06;5055571;28;20052;-88
2021/12/28 01:33:56;;;;;;;64.93;46.50;;;;;;;-144.47;100.00;61586.06;5037751;28;20029;-86
2021/12/28 01:36:21;;;;;;;66.43;46.45;;;;;;;-144.47;100.00;61586.06;5055077;28;20029;-87
2021/12/28 01:38:47;;;;;;;67.13;44.88;;;;;;;-144.47;100.00;61586.06;5036542;28;20101;-88
2021/12/28 01:41:13;;;;;;;62.10;44.28;;;;;;;-144.47;100.00;61586.06;5037665;28;20040;-89
2021/12/28 01:43:40;;;;;;;59.97;42.83;;;;;;;-144.47;100.00;61586.06;5037348;28;20111;-87
2021/12/28 01:46:07;;;;;;;67.43;46.67;;;;;;;-144.47;100.00;61586.06;5037427;28;20428;-88
2021/12/28 01:48:40;;;;;;;63.42;45.45;;;;;;;-144.47;100.00;61586.06;5054985;28;20032;-88
2021/12/28 01:51:10;;;;;;;69.05;45.13;;;;;;;-144.47;100.00;61586.06;5055136;28;20045;-88
2021/12/28 01:53:36;;;;;;;64.07;45.57;;;;;;;-144.47;100.00;61586.06;5053591;28;20037;-87
2021/12/28 01:56:08;;;;;;;65.28;45.72;;;;;;;-144.47;100.00;61586.06;5037813;28;20116;-88
2021/12/28 01:58:34;;;;;;;66.07;46.90;;;;;;;-144.47;100.00;61586.06;5023887;28;20045;-86
2021/12/28 02:01:00;;;;;;;67.70;45.97;;;;;;;-144.47;100.00;61586.06;5054911;28;20057;-88
2021/12/28 02:03:27;;;;;;;62.75;44.30;;;;;;;-144.47;100.00;61586.06;5060260;28;20033;-86
2021/12/28 02:05:53;;;;;;;66.82;46.28;;;;;;;-144.47;100.00;61586.06;5078342;28;20013;-86
2021/12/28 02:08:20;;;;;;;66.13;47.03;;;;;;;-144.47;100.00;61586.06;5078690;28;20063;-88
2021/12/28 02:10:49;;;;;;;72.78;49.15;;;;;;;-144.47;100.00;61586.06;5068060;28;20629;-87
2021/12/28 02:13:15;;;;;;;70.97;49.30;;;;;;;-144.47;100.00;61586.06;5024406;28;20072;-87
2021/12/28 02:15:41;;;;;;;71.53;50.13;;;;;;;-144.47;100.00;61586.06;5023670;28;20511;-87
2021/12/28 02:18:09;;;;;;;68.40;48.40;;;;;;;-144.47;100.00;61586.06;5036774;28;20072;-87
2021/12/28 02:20:36;;;;;;;70.78;49.65;;;;;;;-144.47;100.00;61586.06;5036649;28;20036;-86
2021/12/28 02:23:02;;;;;;;70.15;49.20;;;;;;;-144.47;100.00;61586.06;5036812;28;20074;-86
2021/12/28 02:25:27;;;;;;;63.65;47.30;;;;;;;-144.47;100.00;61586.06;5054367;28;20477;-88
2021/12/28 02:27:53;;;;;;;68.32;46.85;;;;;;;-144.47;100.00;61586.06;5019879;28;20110;-87
2021/12/28 02:30:21;;;;;;;62.50;45.35;;;;;;;-144.47;100.00;61586.06;5054589;28;20021;-87
2021/12/28 02:32:48;;;;;;;65.82;46.38;;;;;;;-144.47;100.00;61586.06;5028678;28;20048;-87
2021/12/28 02:35:16;;;;;;;63.95;46.42;;;;;;;-144.47;100.00;61586.06;5036645;28;20361;-87
2021/12/28 02:37:44;;;;;;;58.25;43.10;;;;;;;-144.47;100.00;61586.06;5027695;28;20040;-87
2021/12/28 02:40:14;;;;;;;65.22;44.40;;;;;;;-144.47;100.00;61586.06;5055088;28;20037;-86
2021/12/28 02:42:40;;;;;;;62.17;41.33;;;;;;;-144.47;100.00;61586.06;5036778;28;20033;-87
2021/12/28 02:45:14;;;;;;;62.40;42.65;;;;;;;-144.47;100.00;61586.06;5020747;28;20421;-87
2021/12/28 02:47:44;;;;;;;60.30;43.15;;;;;;;-144.47;100.00;61586.06;5020890;28;20033;-86
2021/12/28 02:50:13;;;;;;;58.05;40.80;;;;;;;-144.47;100.00;61586.06;5021900;28;20512;-87
2021/12/28 02:52:39;;;;;;;60.55;44.30;;;;;;;-144.47;100.00;61586.06;5022003;28;20033;-86
2021/12/28 02:55:11;;;;;;;56.83;42.38;;;;;;;-144.47;100.00;61586.06;5039569;28;20041;-86
2021/12/28 02:57:37;;;;;;;64.82;42.33;;;;;;;-144.47;100.00;61586.06;5030943;28;20051;-86
2021/12/28 03:00:05;;;;;;;59.95;42.00;;;;;;;-144.47;100.00;61586.06;5040051;28;20432;-87
2021/12/28 03:02:32;;;;;;;57.88;41.38;;;;;;;-144.47;100.00;61586.06;5021894;28;20041;-86
2021/12/28 03:04:57;;;;;;;57.72;42.60;;;;;;;-144.47;100.00;61586.06;5039373;28;20096;-88
2021/12/28 03:07:24;;;;;;;60.45;41.90;;;;;;;-144.47;100.00;61586.06;5051868;28;20449;-87
2021/12/28 03:09:50;;;;;;;60.92;41.63;;;;;;;-144.47;100.00;61586.06;5054946;28;20021;-87
2021/12/28 03:12:15;;;;;;;60.22;40.85;;;;;;;-144.47;100.00;61586.06;5039298;28;20033;-86
2021/12/28 03:14:41;;;;;;;55.45;40.28;;;;;;;-144.47;100.00;61586.06;5068428;28;20071;-87
2021/12/28 03:17:07;;;;;;;57.65;40.80;;;;;;;-144.47;100.00;61586.06;5051855;28;20061;-86
2021/12/28 03:19:34;;;;;;;59.40;41.65;;;;;;;-144.47;100.00;61586.06;5033215;28;20054;-87
2021/12/28 03:22:00;;;;;;;55.03;39.75;;;;;;;-144.47;100.00;61586.06;5048805;28;20051;-88
2021/12/28 03:24:26;;;;;;;56.10;40.03;;;;;;;-144.47;100.00;61586.06;5024624;28;20048;-87
2021/12/28 03:26:51;;;;;;;55.25;40.38;;;;;;;-144.47;100.00;61586.06;5036885;28;20036;-87
2021/12/28 03:29:17;;;;;;;58.65;41.08;;;;;;;-144.47;100.00;61586.06;5019444;28;20029;-87
2021/12/28 03:31:42;;;;;;;56.75;40.70;;;;;;;-144.47;100.00;61586.06;5035783;28;20435;-87
2021/12/28 03:34:08;;;;;;;56.13;40.30;;;;;;;-144.47;100.00;61586.06;5019199;28;20040;-87
2021/12/28 03:36:34;;;;;;;58.90;41.97;;;;;;;-144.47;100.00;61586.06;5035693;28;20456;-87
2021/12/28 03:39:00;;;;;;;60.70;41.20;;;;;;;-144.47;100.00;61586.06;5036538;28;20029;-87
2021/12/28 03:41:28;;;;;;;57.03;40.88;;;;;;;-144.47;100.00;61586.06;5036934;28;20044;-87
2021/12/28 03:43:55;;;;;;;54.67;39.65;;;;;;;-144.47;100.00;61586.06;5035939;28;20130;-87
2021/12/28 03:46:24;;;;;;;56.38;40.47;;;;;;;-144.47;100.00;61586.06;5053871;28;20041;-86
2021/12/28 03:48:49;;;;;;;57.00;43.05;;;;;;;-144.47;100.00;61586.06;5053985;28;20052;-87
2021/12/28 03:51:15;;;;;;;57.42;40.33;;;;;;;-144.47;100.00;61586.06;5035187;28;20551;-86
2021/12/28 03:53:41;;;;;;;55.15;40.65;;;;;;;-144.47;100.00;61586.06;5018979;28;20025;-87
2021/12/28 03:56:09;;;;;;;58.13;42.20;;;;;;;-144.47;100.00;61586.06;5035634;28;20319;-87
2021/12/28 03:58:36;;;;;;;57.40;39.60;;;;;;;-144.47;100.00;61586.06;5035051;28;20032;-87
2021/12/28 04:01:03;;;;;;;59.13;41.85;;;;;;;-144.47;100.00;61586.06;5026316;28;20042;-87
2021/12/28 04:03:29;;;;;;;60.20;41.47;;;;;;;-144.47;100.00;61586.06;5016579;28;20124;-87
2021/12/28 04:05:55;;;;;;;55.85;41.50;;;;;;;-144.47;100.00;61586.06;5015907;28;20065;-88
2021/12/28 04:08:23;;;;;;;60.35;42.38;;;;;;;-144.47;100.00;61586.06;5034606;28;20037;-87
2021/12/28 04:11:01;;;;;;;59.85;42.50;;;;;;;-144.47;100.00;61586.06;5018542;28;20048;-86
2021/12/28 04:13:28;;;;;;;59.58;42.15;;;;;;;-144.47;100.00;61586.06;4992008;28;20108;-86
2021/12/28 04:15:54;;;;;;;58.08;41.90;;;;;;;-144.47;100.00;61586.06;5043212;28;20037;-87
2021/12/28 04:18:20;;;;;;;59.42;43.03;;;;;;;-144.47;100.00;61586.06;5009953;28;20034;-88
2021/12/28 04:20:46;;;;;;;57.25;42.47;;;;;;;-144.47;100.00;61586.06;5013837;28;20128;-88
2021/12/28 04:23:12;;;;;;;58.80;42.60;;;;;;;-144.47;100.00;61586.06;5044698;28;20041;-87
2021/12/28 04:25:37;;;;;;;67.22;41.42;;;;;;;-144.47;100.00;61586.06;5041218;28;20029;-88
2021/12/28 04:28:03;;;;;;;56.35;40.42;;;;;;;-144.47;100.00;61586.06;5034343;28;20035;-88
2021/12/28 04:30:28;;;;;;;58.20;42.50;;;;;;;-144.47;100.00;61586.06;5033786;28;20033;-88
2021/12/28 04:32:54;;;;;;;58.08;42.17;;;;;;;-144.47;100.00;61586.06;4999025;28;20048;-88
2021/12/28 04:35:20;;;;;;;60.35;41.83;;;;;;;-144.47;100.00;61586.06;5015663;28;20029;-87
2021/12/28 04:37:45;;;;;;;53.80;40.95;;;;;;;-144.47;100.00;61586.06;5015558;28;20409;-88
2021/12/28 04:40:12;;;;;;;58.83;41.03;;;;;;;-144.47;100.00;61586.06;4999150;28;20032;-88
2021/12/28 04:42:41;;;;;;;59.88;43.05;;;;;;;-144.47;100.00;61586.06;5032981;28;20107;-88
2021/12/28 04:45:10;;;;;;;60.77;42.43;;;;;;;-144.47;100.00;61586.06;4999067;28;20029;-88
2021/12/28 04:47:36;;;;;;;57.60;41.38;;;;;;;-144.47;100.00;61586.06;4998937;28;20033;-87
2021/12/28 04:50:02;;;;;;;52.63;39.42;;;;;;;-144.47;100.00;61586.06;5012260;28;20374;-88
2021/12/28 04:52:30;;;;;;;57.13;39.83;;;;;;;-144.47;100.00;61586.06;5019946;28;20039;-88
2021/12/28 04:54:56;;;;;;;54.13;39.95;;;;;;;-144.47;100.00;61586.06;5018279;28;20038;-88
2021/12/28 04:57:21;;;;;;;58.60;40.78;;;;;;;-144.47;100.00;61586.06;5020004;28;20103;-88
2021/12/28 04:59:47;;;;;;;59.30;40.67;;;;;;;-144.47;100.00;61586.06;5019436;28;20048;-88
2021/12/28 05:02:13;;;;;;;55.33;40.60;;;;;;;-144.47;100.00;61586.06;5047118;28;20107;-88
2021/12/28 05:04:38;;;;;;;59.20;41.03;;;;;;;-144.47;100.00;61586.06;5053300;28;20025;-88
2021/12/28 05:07:04;;;;;;;58.78;40.78;;;;;;;-144.47;100.00;61586.06;5022325;28;20021;-86
2021/12/28 05:09:30;;;;;;;58.17;41.58;;;;;;;-144.47;100.00;61586.06;5051729;28;20094;-89
2021/12/28 05:11:55;;;;;;;65.20;44.25;;;;;;;-144.47;100.00;61586.06;5044625;28;20037;-86
2021/12/28 05:14:21;;;;;;;60.05;42.28;;;;;;;-144.47;100.00;61586.06;5045343;28;20044;-87
2021/12/28 05:16:47;;;;;;;63.40;43.22;;;;;;;-144.47;100.00;61586.06;5043617;28;20021;-89
2021/12/28 05:19:14;;;;;;;59.72;41.97;;;;;;;-144.47;100.00;61586.06;5038345;28;20045;-86
2021/12/28 05:21:40;;;;;;;61.50;44.47;;;;;;;-144.47;100.00;61586.06;5061783;28;20037;-86
2021/12/28 05:24:06;;;;;;;63.03;43.42;;;;;;;-144.47;100.00;61586.06;5047604;28;20076;-86
2021/12/28 05:26:32;;;;;;;61.97;45.70;;;;;;;-144.47;100.00;61586.06;5056551;28;20044;-86
2021/12/28 05:28:57;;;;;;;59.22;43.70;;;;;;;-144.47;100.00;61586.06;5046176;28;20035;-85
2021/12/28 05:31:25;;;;;;;60.50;43.97;;;;;;;-144.47;100.00;61586.06;5081648;28;20033;-87
2021/12/28 05:33:52;;;;;;;59.85;44.35;;;;;;;-144.47;100.00;61586.06;5080101;28;20035;-86
2021/12/28 05:36:19;;;;;;;57.92;42.38;;;;;;;-144.47;100.00;61586.06;5046381;28;20094;-85
2021/12/28 05:38:45;;;;;;;60.55;43.45;;;;;;;-144.47;100.00;61586.06;5048632;28;20060;-86
2021/12/28 05:41:10;;;;;;;59.63;43.30;;;;;;;-144.47;100.00;61586.06;5062157;28;20033;-86
2021/12/28 05:43:36;;;;;;;62.00;44.00;;;;;;;-144.47;100.00;61586.06;5062597;28;20048;-86
2021/12/28 05:46:02;;;;;;;61.60;43.55;;;;;;;-144.47;100.00;61586.06;5046285;28;20064;-85
2021/12/28 05:48:28;;;;;;;57.90;42.65;;;;;;;-144.47;100.00;61586.06;5062777;28;20052;-85
2021/12/28 05:50:53;;;;;;;59.92;43.92;;;;;;;-144.47;100.00;61586.06;5061465;28;20060;-86
2021/12/28 05:53:19;;;;;;;61.28;42.85;;;;;;;-144.47;100.00;61586.06;5061651;28;20017;-86
2021/12/28 05:55:45;;;;;;;58.03;42.83;;;;;;;-144.47;100.00;61586.06;5031304;28;20038;-87
2021/12/28 05:58:10;;;;;;;60.50;42.38;;;;;;;-144.47;100.00;61586.06;5072792;28;20025;-87
2021/12/28 06:00:36;;;;;;;60.22;43.10;;;;;;;-144.47;100.00;61586.06;5072056;28;20029;-86
2021/12/28 06:03:02;;;;;;;59.22;42.80;;;;;;;-144.47;100.00;61586.06;5041146;28;20067;-86
2021/12/28 06:05:28;;;;;;;59.92;43.58;;;;;;;-144.47;100.00;61586.06;5072960;28;20096;-86
2021/12/28 06:07:54;;;;;;;57.95;43.13;;;;;;;-144.47;100.00;61586.06;5061044;28;20060;-86
2021/12/28 06:10:19;;;;;;;64.53;45.95;;;;;;;-144.47;100.00;61586.06;5074410;28;20043;-86
2021/12/28 06:12:45;;;;;;;64.53;45.10;;;;;;;-144.47;100.00;61586.06;5065066;28;20025;-88
2021/12/28 06:15:11;;;;;;;61.33;44.25;;;;;;;-144.47;100.00;61586.06;5057016;28;20025;-88
2021/12/28 06:17:37;;;;;;;64.63;44.97;;;;;;;-144.47;100.00;61586.06;5078887;28;20048;-88
2021/12/28 06:20:05;;;;;;;66.65;46.67;;;;;;;-144.47;100.00;61586.06;5079289;28;20021;-87
2021/12/28 06:22:30;;;;;;;66.82;46.65;;;;;;;-144.47;100.00;61586.06;5079481;28;20021;-88
2021/12/28 06:24:56;;;;;;;67.32;46.78;;;;;;;-144.47;100.00;61586.06;5061101;28;20051;-88
2021/12/28 06:27:21;;;;;;;70.10;48.38;;;;;;;-144.47;100.00;61586.06;5051048;28;20067;-88
2021/12/28 06:29:47;;;;;;;69.70;48.55;;;;;;;-144.47;100.00;61586.06;5057356;28;20033;-88
2021/12/28 06:32:13;;;;;;;71.57;48.45;;;;;;;-144.47;100.00;61586.06;5022347;28;20342;-88
2021/12/28 06:34:39;;;;;;;65.60;48.47;;;;;;;-144.47;100.00;61586.06;5021746;28;20055;-87
2021/12/28 06:37:06;;;;;;;66.53;47.92;;;;;;;-144.47;100.00;61586.06;5038151;28;20125;-88
2021/12/28 06:39:31;;;;;;;68.90;48.03;;;;;;;-144.47;100.00;61586.06;5037409;28;20045;-87
2021/12/28 06:41:59;;;;;;;70.75;47.47;;;;;;;-144.47;100.00;61586.06;5045702;28;20041;-88
2021/12/28 06:44:26;;;;;;;67.00;46.13;;;;;;;-144.47;100.00;61586.06;5024843;28;20033;-89
2021/12/28 06:46:52;;;;;;;63.70;44.05;;;;;;;-144.47;100.00;61586.06;5022982;28;20063;-88
2021/12/28 06:49:18;;;;;;;64.38;46.00;;;;;;;-144.47;100.00;61586.06;5031853;28;20067;-88
2021/12/28 06:51:44;;;;;;;63.53;44.30;;;;;;;-144.47;100.00;61586.06;5009723;28;20029;-85
2021/12/28 06:54:11;;;;;;;64.80;44.63;;;;;;;-144.47;100.00;61586.06;5008400;28;20715;-86
2021/12/28 06:56:36;;;;;;;61.15;42.92;;;;;;;-144.47;100.00;61586.06;5027903;28;20034;-87
2021/12/28 06:59:03;;;;;;;62.72;43.75;;;;;;;-144.47;100.00;61586.06;5051820;28;20107;-88
2021/12/28 07:01:28;;;;;;;61.25;42.88;;;;;;;-144.47;100.00;61586.06;5037718;28;20045;-87
2021/12/28 07:03:54;;;;;;;59.58;42.65;;;;;;;-144.47;100.00;61586.06;5037293;28;20531;-87
2021/12/28 07:06:21;;;;;;;62.80;43.30;;;;;;;-144.47;100.00;61586.06;5037012;28;20041;-88
2021/12/28 07:08:47;;;;;;;57.08;41.97;;;;;;;-144.47;100.00;61586.06;5037293;28;20078;-88
2021/12/28 07:11:12;;;;;;;65.32;43.50;;;;;;;-144.47;100.00;61586.06;5036999;28;20124;-88
2021/12/28 07:13:38;;;;;;;63.65;44.60;;;;;;;-144.47;100.00;61586.06;5035751;28;20037;-87
2021/12/28 07:16:04;;;;;;;61.05;42.97;;;;;;;-144.47;100.00;61586.06;5019819;28;20463;-88
2021/12/28 07:18:30;;;;;;;66.82;45.05;;;;;;;-144.47;100.00;61586.06;5037665;28;20033;-88
2021/12/28 07:20:58;;;;;;;65.78;43.20;;;;;;;-144.47;100.00;61586.06;5038510;28;20037;-87
2021/12/28 07:23:23;;;;;;;68.35;47.17;;;;;;;-144.47;100.00;61586.06;5055568;28;20025;-87
2021/12/28 07:25:53;;;;;;;65.03;44.55;;;;;;;-144.47;100.00;61586.06;5038796;28;20035;-87
2021/12/28 07:28:18;;;;;;;67.10;46.85;;;;;;;-144.47;100.00;61586.06;5045823;28;20417;-87
2021/12/28 07:30:47;;;;;;;70.80;46.13;;;;;;;-144.47;100.00;61586.06;5036015;28;20105;-87
2021/12/28 07:33:13;;;;;;;64.75;46.10;;;;;;;-144.47;100.00;61586.06;5012560;28;20037;-87
2021/12/28 07:35:38;;;;;;;68.10;47.67;;;;;;;-144.47;100.00;61586.06;5021616;28;20036;-86
2021/12/28 07:38:04;;;;;;;68.68;45.00;;;;;;;-144.47;100.00;61586.06;5054007;28;20707;-85
2021/12/28 07:40:30;;;;;;;66.00;45.50;;;;;;;-144.47;100.00;61586.06;5035040;28;20396;-86
2021/12/28 07:42:55;;;;;;;72.47;48.50;;;;;;;-144.47;100.00;61586.06;5052636;28;20056;-87
2021/12/28 07:45:21;;;;;;;68.10;46.17;;;;;;;-144.47;100.00;61586.06;5022458;28;20032;-86
2021/12/28 07:47:47;;;;;;;64.93;45.38;;;;;;;-144.47;100.00;61586.06;5019091;28;20029;-88
2021/12/28 07:50:15;;;;;;;65.47;45.03;;;;;;;-144.47;100.00;61586.06;5018926;28;20044;-87
2021/12/28 07:52:42;;;;;;;68.95;46.75;;;;;;;-144.47;100.00;61586.06;5034893;28;20043;-86
2021/12/28 07:55:08;;;;;;;62.10;44.33;;;;;;;-144.47;100.00;61586.06;5018452;28;20036;-89
2021/12/28 07:57:34;;;;;;;64.93;44.95;;;;;;;-144.47;100.00;61586.06;5052109;28;20032;-86
2021/12/28 08:00:01;;;;;;;60.83;42.92;;;;;;;-144.47;100.00;61586.06;5052529;28;20112;-85
2021/12/28 08:02:26;;;;;;;68.00;45.63;;;;;;;-144.47;100.00;61586.06;5053512;28;20042;-88
2021/12/28 08:04:52;;;;;;;61.10;43.28;;;;;;;-144.47;100.00;61586.06;5019673;28;20485;-87
2021/12/28 08:07:17;;;;;;;57.92;41.65;;;;;;;-144.47;100.00;61586.06;5020055;28;20037;-87
2021/12/28 08:09:43;;;;;;;61.35;41.25;;;;;;;-144.47;100.00;61586.06;5052628;28;20044;-86
2021/12/28 08:12:09;;;;;;;57.20;40.78;;;;;;;-144.47;100.00;61586.06;5035165;28;20036;-88
2021/12/28 08:14:35;;;;;;;60.45;42.83;;;;;;;-144.47;100.00;61586.06;5035467;28;20040;-88
2021/12/28 08:17:01;;;;;;;59.78;43.38;;;;;;;-144.47;100.00;61586.06;5027496;28;20082;-87
2021/12/28 08:19:27;;;;;;;60.65;42.45;;;;;;;-144.47;100.00;61586.06;5034903;28;20029;-86
2021/12/28 08:21:52;;;;;;;59.05;41.58;;;;;;;-144.47;100.00;61586.06;5053330;28;20059;-86
2021/12/28 08:24:18;;;;;;;55.95;41.75;;;;;;;-144.47;100.00;61586.06;5061203;28;20029;-86
2021/12/28 08:26:43;;;;;;;57.28;41.33;;;;;;;-144.47;100.00;61586.06;5055629;28;20048;-85
2021/12/28 08:29:09;;;;;;;58.33;43.65;;;;;;;-144.47;100.00;61586.06;5071275;28;20037;-86
2021/12/28 08:31:35;;;;;;;57.28;42.95;;;;;;;-144.47;100.00;61586.06;5066466;28;20032;-86
2021/12/28 08:34:00;;;;;;;57.92;42.67;;;;;;;-144.47;100.00;61586.06;5048405;28;20056;-86
2021/12/28 08:36:26;;;;;;;62.38;45.05;;;;;;;-144.47;100.00;61586.06;5023221;28;20036;-86
2021/12/28 08:38:51;;;;;;;57.20;42.22;;;;;;;-144.47;100.00;61586.06;5052590;28;20036;-86
2021/12/28 08:41:17;;;;;;;59.10;43.47;;;;;;;-144.47;100.00;61586.06;5052634;28;20031;-86
2021/12/28 08:43:44;;;;;;;55.00;42.97;;;;;;;-144.47;100.00;61586.06;5052132;28;20488;-86
2021/12/28 08:46:10;;;;;;;60.00;42.10;;;;;;;-144.47;100.00;61586.06;5034124;28;20041;-86
2021/12/28 08:48:35;;;;;;;60.10;44.40;;;;;;;-144.47;100.00;61586.06;5033924;28;20044;-86
2021/12/28 08:51:01;;;;;;;60.00;44.35;;;;;;;-144.47;100.00;61586.06;5051829;28;20029;-86
2021/12/28 08:53:26;;;;;;;62.97;45.08;;;;;;;-144.47;100.00;61586.06;5052189;28;20482;-86
2021/12/28 08:55:52;;;;;;;60.47;44.90;;;;;;;-144.47;100.00;61586.06;5033693;28;20127;-85
2021/12/28 08:58:18;;;;;;;64.00;46.15;;;;;;;-144.47;100.00;61586.06;5034064;28;20029;-86
2021/12/28 09:00:44;;;;;;;65.35;46.00;;;;;;;-144.47;100.00;61586.06;5033083;28;20375;-85
2021/12/28 09:03:11;;;;;;;61.33;45.67;;;;;;;-144.47;100.00;61586.06;5051434;28;20079;-86
2021/12/28 09:05:37;;;;;;;64.35;46.20;;;;;;;-144.47;100.00;61586.06;5051584;28;20104;-87
2021/12/28 09:08:06;;;;;;;61.72;43.72;;;;;;;-144.47;100.00;61586.06;5034373;28;20052;-87
2021/12/28 09:10:32;;;;;;;61.55;44.65;;;;;;;-144.47;100.00;61586.06;5051307;28;20021;-85
2021/12/28 09:12:57;;;;;;;58.00;43.55;;;;;;;-144.47;100.00;61586.06;5051466;28;20116;-85
2021/12/28 09:15:23;;;;;;;61.83;43.58;;;;;;;-144.47;100.00;61586.06;5051661;28;20153;-86
2021/12/28 09:17:49;;;;;;;60.65;43.25;;;;;;;-144.47;100.00;61586.06;5050983;28;20037;-85
2021/12/28 09:20:18;;;;;;;60.05;43.33;;;;;;;-144.47;100.00;61586.06;5051572;28;20036;-85
2021/12/28 09:22:44;;;;;;;61.55;43.78;;;;;;;-144.47;100.00;61586.06;5051602;28;20028;-86
2021/12/28 09:25:10;;;;;;;57.72;43.42;;;;;;;-144.47;100.00;61586.06;5051595;28;20079;-86
2021/12/28 09:27:38;;;;;;;58.38;43.58;;;;;;;-144.47;100.00;61586.06;5051460;28;20029;-86
2021/12/28 09:30:05;;;;;;;65.70;45.70;;;;;;;-144.47;100.00;61586.06;5034034;28;20037;-87
2021/12/28 09:32:30;;;;;;;58.97;42.63;;;;;;;-144.47;100.00;61586.06;5052262;28;20394;-87
2021/12/28 09:34:56;;;;;;;61.75;44.35;;;;;;;-144.47;100.00;61586.06;5062007;28;20040;-85
2021/12/28 09:37:22;;;;;;;61.10;44.22;;;;;;;-144.47;100.00;61586.06;5067869;28;20540;-86
2021/12/28 09:39:48;;;;;;;60.72;44.70;;;;;;;-144.47;100.00;61586.06;5023245;28;20036;-84
2021/12/28 09:42:15;;;;;;;66.40;45.78;;;;;;;-144.47;100.00;61586.06;5052207;28;20063;-85
2021/12/28 09:44:41;;;;;;;62.20;44.63;;;;;;;-144.47;100.00;61586.06;5034276;28;20457;-85
2021/12/28 09:47:08;;;;;;;64.25;45.25;;;;;;;-144.47;100.00;61586.06;5037386;28;20035;-86
2021/12/28 09:49:34;;;;;;;62.58;44.97;;;;;;;-144.47;100.00;61586.06;5037129;28;20037;-87
2021/12/28 09:52:03;;;;;;;68.10;45.97;;;;;;;-144.47;100.00;61586.06;5055274;28;20036;-88
2021/12/28 09:54:30;;;;;;;61.13;44.38;;;;;;;-144.47;100.00;61586.06;5055669;28;20116;-87
2021/12/28 09:56:57;;;;;;;66.22;46.83;;;;;;;-144.47;100.00;61586.06;5037724;28;20029;-87
2021/12/28 09:59:23;;;;;;;65.47;44.38;;;;;;;-144.47;100.00;61586.06;5055494;28;20055;-85
2021/12/28 10:01:49;;;;;;;62.53;43.53;;;;;;;-144.47;100.00;61586.06;5055220;28;20132;-86
2021/12/28 10:04:16;;;;;;;59.25;42.80;;;;;;;-144.47;100.00;61586.06;5037681;28;20137;-87
2021/12/28 10:06:43;;;;;;;65.00;44.20;;;;;;;-144.47;100.00;61586.06;5037321;28;20409;-86
2021/12/28 10:09:11;;;;;;;61.70;43.40;;;;;;;-144.47;100.00;61586.06;5055227;28;20394;-85
2021/12/28 10:11:48;;;;;;;60.00;43.38;;;;;;;-144.47;100.00;61586.06;5055818;28;20017;-87
2021/12/28 10:14:18;;;;;;;55.30;40.72;;;;;;;-144.47;100.00;61586.06;5061469;28;20064;-87
2021/12/28 10:16:46;;;;;;;60.97;43.00;;;;;;;-144.47;100.00;61586.06;5074396;28;20056;-85
2021/12/28 10:19:48;;;;;;;58.88;42.22;;;;;;;-144.47;100.00;61586.06;5051862;28;20037;-87
2021/12/28 10:22:42;;;;;;;57.63;41.65;;;;;;;-144.47;100.00;61586.06;4994385;28;20038;-85
2021/12/28 10:25:14;;;;;;;56.45;39.83;;;;;;;-144.47;100.00;61586.06;4981019;28;20047;-85
2021/12/28 10:27:42;;;;;;;59.10;41.15;;;;;;;-144.47;100.00;61586.06;4975450;28;20169;-87
2021/12/28 10:30:37;;;;;;;57.08;42.15;;;;;;;-144.47;100.00;61586.06;4958975;28;20070;-86
2021/12/28 10:33:05;;;;;;;51.22;40.38;;;;;;;-144.47;100.00;61586.06;4929500;28;20118;-87
2021/12/28 10:35:38;;;;;;;57.25;41.80;;;;;;;-144.47;100.00;61586.06;4943234;28;20042;-87
2021/12/28 10:38:07;;;;;;;54.40;41.47;;;;;;;-144.47;100.00;61586.06;4974725;28;20476;-87
2021/12/28 10:40:42;;;;;;;57.25;40.55;;;;;;;-144.47;100.00;61586.06;4979197;28;20078;-87
2021/12/28 10:43:13;;;;;;;55.92;40.08;;;;;;;-144.47;100.00;61586.06;4941378;28;20471;-85
2021/12/28 10:45:42;;;;;;;54.30;40.08;;;;;;;-144.47;100.00;61586.06;4972814;28;20038;-87
2021/12/28 10:48:34;;;;;;;50.17;38.13;;;;;;;-144.47;100.00;61586.06;4973446;28;20045;-87
2021/12/28 10:51:07;;;;;;;54.35;37.83;;;;;;;-144.47;100.00;61586.06;4970979;28;20105;-86
2021/12/28 10:54:01;;;;;;;53.13;38.25;;;;;;;-144.47;100.00;61586.06;4956849;28;20469;-86
2021/12/28 10:56:29;;;;;;;50.58;38.00;;;;;;;-144.47;100.00;61586.06;5019522;28;20131;-87